Time;durP1;ratioP1;P1;durP2;ratioP2;P2;SDS_P1;SDS_P2;PMS_P1;PMS_P2;Temp;Humidity;BMP_temperature;BMP_pressure;BME280_temperature;BME280_humidity;BME280_pressure;Samples;Min_cycle;Max_cycle;Signal;HPM_P1;HPM_P2
2023/12/09 00:02:17;;;;;;;30.30;17.38;;;;;;;29.29;56.23;101014.41;4974050;28;66771;-39
2023/12/09 00:04:47;;;;;;;27.42;19.60;;;;;;;29.39;58.60;101036.47;4965273;28;69735;-39
2023/12/09 00:07:17;;;;;;;30.40;20.77;;;;;;;29.48;59.33;101038.97;4977504;28;66439;-38
2023/12/09 00:09:47;;;;;;;32.30;20.80;;;;;;;29.48;64.75;101044.38;4977320;28;69137;-39
2023/12/09 00:12:17;;;;;;;27.67;20.35;;;;;;;29.48;61.51;101034.41;4976356;28;65673;-38
2023/12/09 00:14:47;;;;;;;59.95;32.42;;;;;;;29.63;63.17;101045.03;4962783;28;69161;-39
2023/12/09 00:17:18;;;;;;;86.03;44.45;;;;;;;29.69;63.23;101056.88;4972306;28;65548;-40
2023/12/09 00:19:48;;;;;;;91.18;51.10;;;;;;;28.59;64.07;100883.44;4951339;28;70220;-40
2023/12/09 00:22:18;;;;;;;100.07;57.08;;;;;;;29.75;68.13;101066.84;4965464;28;66581;-39
2023/12/09 00:24:48;;;;;;;101.85;59.70;;;;;;;29.79;65.97;101068.13;4945117;28;70111;-39
2023/12/09 00:27:17;;;;;;;103.03;58.30;;;;;;;29.77;68.70;101071.03;4963012;28;66576;-39
2023/12/09 00:29:48;;;;;;;105.93;59.58;;;;;;;29.83;64.89;101070.19;4947951;28;69923;-39
2023/12/09 00:32:18;;;;;;;105.18;59.00;;;;;;;29.91;70.26;101092.66;4973194;28;66539;-40
2023/12/09 00:34:48;;;;;;;110.15;54.53;;;;;;;29.89;65.62;101086.63;4957027;28;68925;-40
2023/12/09 00:37:18;;;;;;;95.45;50.90;;;;;;;29.97;66.53;101106.16;4970928;28;65704;-39
2023/12/09 00:39:48;;;;;;;94.93;49.47;;;;;;;29.87;66.86;101081.44;4981155;28;70164;-39
2023/12/09 00:42:18;;;;;;;80.05;42.67;;;;;;;29.94;66.14;101086.81;4948678;28;65220;-39
2023/12/09 00:44:48;;;;;;;78.80;41.30;;;;;;;30.09;66.02;101106.38;4973607;28;70252;-39
2023/12/09 00:47:18;;;;;;;78.35;39.97;;;;;;;30.09;68.91;101111.81;4964035;28;66108;-39
2023/12/09 00:49:48;;;;;;;71.85;36.83;;;;;;;30.10;67.92;101118.88;4962632;28;69976;-39
2023/12/09 00:52:18;;;;;;;61.17;34.03;;;;;;;30.12;68.31;101119.50;4978306;28;66034;-39
2023/12/09 00:54:48;;;;;;;56.15;31.65;;;;;;;30.21;67.34;101126.34;4959594;28;70279;-39
2023/12/09 00:57:20;;;;;;;68.18;32.72;;;;;;;30.17;69.43;101124.25;4961764;28;66330;-40
2023/12/09 00:59:51;;;;;;;43.72;30.77;;;;;;;30.08;73.11;101122.81;4968711;28;70607;-41
2023/12/09 01:02:21;;;;;;;58.58;32.05;;;;;;;29.92;69.26;101094.31;4974521;28;65362;-41
2023/12/09 01:04:51;;;;;;;52.85;32.55;;;;;;;30.13;69.81;101134.66;4953088;28;69824;-41
2023/12/09 01:07:21;;;;;;;60.65;36.05;;;;;;;30.17;68.99;101145.91;4974366;28;66736;-41
2023/12/09 01:09:51;;;;;;;62.90;35.13;;;;;;;30.13;72.59;101144.66;4970745;28;69927;-41
2023/12/09 01:12:21;;;;;;;58.78;33.90;;;;;;;30.16;69.17;101139.66;4970105;28;66357;-40
2023/12/09 01:14:51;;;;;;;59.47;34.63;;;;;;;30.14;70.82;101147.16;4964045;28;70626;-40
2023/12/09 01:17:21;;;;;;;56.45;32.92;;;;;;;30.13;70.45;101155.50;4954642;28;66528;-40
2023/12/09 01:19:52;;;;;;;57.13;33.30;;;;;;;30.16;69.05;101149.66;4967540;28;70476;-39
2023/12/09 01:22:22;;;;;;;55.42;34.63;;;;;;;30.11;70.93;101152.97;4965385;28;66739;-40
2023/12/09 01:24:52;;;;;;;54.40;32.42;;;;;;;30.03;70.49;101147.78;4958673;28;69861;-40
2023/12/09 01:27:22;;;;;;;52.20;32.53;;;;;;;30.06;74.91;101144.66;4946253;28;65419;-40
2023/12/09 01:29:52;;;;;;;53.92;30.45;;;;;;;30.16;70.53;101153.19;4958736;28;70618;-39
2023/12/09 01:32:22;;;;;;;51.13;31.35;;;;;;;30.15;75.57;101154.25;4966779;28;65872;-39
2023/12/09 01:34:53;;;;;;;53.95;31.48;;;;;;;30.23;70.05;101150.53;4965248;28;70138;-38
2023/12/09 01:37:23;;;;;;;54.70;30.50;;;;;;;30.21;73.34;101153.41;4963256;28;65628;-40
2023/12/09 01:39:53;;;;;;;47.33;28.60;;;;;;;29.96;71.34;101100.97;4960975;28;70346;-41
2023/12/09 01:42:23;;;;;;;49.45;28.73;;;;;;;30.25;72.15;101149.25;4944784;28;65812;-40
2023/12/09 01:44:54;;;;;;;43.22;27.83;;;;;;;30.34;70.37;101151.75;4968454;28;71054;-39
2023/12/09 01:47:24;;;;;;;44.33;26.85;;;;;;;30.28;73.41;101143.44;4935514;28;66254;-47
2023/12/09 01:49:54;;;;;;;38.55;23.63;;;;;;;30.32;73.00;101149.25;4946918;28;69907;-40
2023/12/09 01:52:25;;;;;;;41.10;25.70;;;;;;;30.39;70.81;101154.66;4967937;28;66448;-41
2023/12/09 01:54:56;;;;;;;38.43;24.60;;;;;;;30.30;73.97;101139.69;4950337;28;70291;-41
2023/12/09 01:57:27;;;;;;;34.17;22.63;;;;;;;30.41;71.53;101152.56;4959249;28;65654;-39
2023/12/09 01:59:57;;;;;;;32.08;20.80;;;;;;;30.39;69.73;101139.25;4965180;28;68736;-40
2023/12/09 02:02:28;;;;;;;31.85;19.15;;;;;;;30.54;68.46;101146.31;4942667;28;66390;-40
2023/12/09 02:05:01;;;;;;;23.50;17.73;;;;;;;30.62;68.19;101156.91;4962871;28;70704;-40
2023/12/09 02:07:33;;;;;;;24.00;17.63;;;;;;;30.38;67.76;101098.88;4973823;28;66235;-39
2023/12/09 02:10:06;;;;;;;24.35;17.85;;;;;;;30.68;67.42;101146.06;4945781;28;71012;-40
2023/12/09 02:12:48;;;;;;;30.25;17.63;;;;;;;30.67;67.84;101140.84;4942111;28;66627;-40
2023/12/09 02:15:22;;;;;;;25.23;16.58;;;;;;;30.71;67.31;101142.94;4963953;28;70017;-40
2023/12/09 02:17:52;;;;;;;22.42;16.70;;;;;;;30.76;67.53;101134.16;4962353;28;66363;-40
2023/12/09 02:20:22;;;;;;;18.35;15.45;;;;;;;30.71;67.03;101132.09;4971721;28;70732;-40
2023/12/09 02:23:12;;;;;;;21.88;16.10;;;;;;;30.75;67.74;101137.91;4960542;28;66157;-41
2023/12/09 02:25:42;;;;;;;19.00;16.48;;;;;;;30.78;67.15;101115.81;4966214;28;69835;-40
2023/12/09 02:28:20;;;;;;;17.27;15.20;;;;;;;30.76;67.28;101119.78;4966454;28;65565;-39
2023/12/09 02:31:11;;;;;;;16.95;13.60;;;;;;;30.55;66.97;101081.13;4970088;28;69683;-39
2023/12/09 02:33:45;;;;;;;15.27;13.73;;;;;;;30.90;67.12;101135.00;4957675;28;66232;-39
2023/12/09 02:36:21;;;;;;;16.65;15.00;;;;;;;30.90;67.30;101141.22;4941798;28;70121;-40
2023/12/09 02:38:53;;;;;;;16.40;14.90;;;;;;;30.96;67.19;101139.53;4964003;28;65683;-39
2023/12/09 02:41:24;;;;;;;16.55;14.63;;;;;;;30.89;67.29;101123.28;4965293;28;70493;-39
2023/12/09 02:43:55;;;;;;;16.23;14.65;;;;;;;31.00;66.92;101134.53;4960165;28;66627;-40
2023/12/09 02:46:26;;;;;;;16.75;13.88;;;;;;;30.99;67.17;101133.69;4968124;28;70482;-40
2023/12/09 02:48:58;;;;;;;15.05;13.60;;;;;;;31.01;67.04;101126.19;4967236;28;66268;-40
2023/12/09 02:51:29;;;;;;;14.73;13.15;;;;;;;31.02;67.29;101133.25;4941171;28;70969;-41
2023/12/09 02:53:59;;;;;;;14.73;13.23;;;;;;;31.07;66.80;101141.56;4960436;28;67245;-39
2023/12/09 02:56:29;;;;;;;15.07;13.43;;;;;;;31.08;67.22;101137.81;4968291;28;71114;-39
2023/12/09 02:59:00;;;;;;;15.00;13.60;;;;;;;31.09;67.31;101136.78;4927556;28;65406;-39
2023/12/09 03:01:30;;;;;;;14.05;12.82;;;;;;;31.11;66.95;101133.84;4961985;28;70909;-39
2023/12/09 03:04:01;;;;;;;14.68;13.18;;;;;;;31.11;67.42;101125.72;4962343;28;66506;-40
2023/12/09 03:06:31;;;;;;;13.88;12.63;;;;;;;31.16;66.75;101128.59;4962949;28;71189;-40
2023/12/09 03:09:01;;;;;;;13.20;11.90;;;;;;;31.11;67.03;101110.28;4963469;28;65594;-40
2023/12/09 03:11:31;;;;;;;15.75;14.05;;;;;;;30.88;72.41;101120.81;4969182;28;69847;-39
2023/12/09 03:14:02;;;;;;;18.55;15.25;;;;;;;30.79;73.18;101116.66;4948507;28;67086;-40
2023/12/09 03:16:32;;;;;;;21.45;14.52;;;;;;;30.73;72.78;101119.19;4966148;28;70223;-39
2023/12/09 03:19:02;;;;;;;20.35;15.45;;;;;;;30.66;73.72;101112.94;4926808;28;64205;-40
2023/12/09 03:21:32;;;;;;;24.52;15.80;;;;;;;30.68;74.04;101110.84;4962925;28;70842;-39
2023/12/09 03:24:02;;;;;;;22.17;15.43;;;;;;;30.70;73.83;101107.91;4958069;28;66114;-41
2023/12/09 03:26:32;;;;;;;24.08;16.45;;;;;;;30.70;73.48;101092.53;4956563;28;70032;-41
2023/12/09 03:29:02;;;;;;;20.63;16.27;;;;;;;30.76;73.14;101100.81;4962379;28;66569;-41
2023/12/09 03:31:33;;;;;;;26.98;18.15;;;;;;;30.76;73.48;101088.13;4949170;28;70147;-41
2023/12/09 03:34:02;;;;;;;22.27;16.23;;;;;;;30.72;73.33;101068.75;4950244;28;67065;-41
2023/12/09 03:36:32;;;;;;;23.77;17.80;;;;;;;30.72;72.82;101060.63;4972115;28;69946;-41
2023/12/09 03:39:03;;;;;;;31.75;18.85;;;;;;;30.81;73.29;101076.66;4932526;28;65735;-40
2023/12/09 03:41:34;;;;;;;24.27;17.40;;;;;;;30.72;72.42;101057.91;4938242;28;69356;-41
2023/12/09 03:44:04;;;;;;;21.45;15.65;;;;;;;30.87;71.58;101075.81;4959020;28;66180;-39
2023/12/09 03:46:34;;;;;;;15.95;14.20;;;;;;;30.80;73.79;101065.00;4945634;28;70599;-39
2023/12/09 03:49:04;;;;;;;15.35;13.15;;;;;;;30.83;73.80;101061.03;4953660;28;66063;-40
2023/12/09 03:51:34;;;;;;;13.38;12.07;;;;;;;30.84;73.86;101052.72;4968663;28;70201;-40
2023/12/09 03:54:05;;;;;;;11.75;10.60;;;;;;;30.89;72.80;101047.44;4954917;28;65203;-39
2023/12/09 03:56:35;;;;;;;10.85;9.98;;;;;;;30.85;73.03;101038.13;4963710;28;70116;-39
2023/12/09 03:59:05;;;;;;;10.43;9.40;;;;;;;30.60;74.12;100997.38;4955235;28;65418;-40
2023/12/09 04:01:35;;;;;;;11.40;10.30;;;;;;;30.81;74.26;101027.91;4968047;28;70364;-40
2023/12/09 04:04:05;;;;;;;11.85;9.73;;;;;;;30.89;74.57;101035.78;4972273;28;67029;-40
2023/12/09 04:06:37;;;;;;;9.50;8.70;;;;;;;30.99;73.66;101035.34;4975829;28;69597;-41
2023/12/09 04:09:11;;;;;;;8.88;8.25;;;;;;;30.96;74.07;101025.75;4971240;28;66766;-40
2023/12/09 04:11:43;;;;;;;8.85;8.15;;;;;;;31.03;74.61;101031.13;4949547;28;69107;-40
2023/12/09 04:14:14;;;;;;;8.57;7.78;;;;;;;30.99;74.49;101014.50;4971512;28;65875;-40
2023/12/09 04:16:45;;;;;;;7.90;7.40;;;;;;;31.00;74.54;101013.44;4957433;28;70046;-41
2023/12/09 04:19:15;;;;;;;8.07;7.50;;;;;;;31.03;74.50;101012.16;4964151;28;65264;-40
2023/12/09 04:21:46;;;;;;;7.68;6.95;;;;;;;31.04;74.24;101000.31;4959272;28;70335;-40
2023/12/09 04:24:17;;;;;;;7.80;7.20;;;;;;;30.99;74.17;100987.41;4956911;28;66434;-39
2023/12/09 04:26:47;;;;;;;7.97;7.38;;;;;;;31.09;74.52;100993.19;4964722;28;70221;-41
2023/12/09 04:29:17;;;;;;;8.90;7.13;;;;;;;31.11;74.51;100987.53;4959825;28;65606;-40
2023/12/09 04:31:47;;;;;;;7.78;6.68;;;;;;;31.05;74.78;100969.44;4979810;28;71570;-40
2023/12/09 04:34:17;;;;;;;7.78;7.05;;;;;;;31.07;75.14;100970.88;4979580;28;66749;-40
2023/12/09 04:36:47;;;;;;;7.22;6.65;;;;;;;31.10;75.43;100969.63;4979987;28;70386;-40
2023/12/09 04:39:18;;;;;;;7.63;7.05;;;;;;;31.05;75.19;100964.03;4966211;28;66139;-41
2023/12/09 04:41:48;;;;;;;7.70;7.00;;;;;;;31.40;71.27;100967.13;4966807;28;70765;-40
2023/12/09 04:44:18;;;;;;;6.88;6.47;;;;;;;31.50;70.61;100964.72;4951505;28;65855;-39
2023/12/09 04:46:47;;;;;;;9.45;6.38;;;;;;;31.59;70.47;100951.69;4960562;28;70216;-40
2023/12/09 04:49:18;;;;;;;7.22;6.63;;;;;;;31.59;69.98;100939.00;4964941;28;66888;-39
2023/12/09 04:51:48;;;;;;;8.23;7.43;;;;;;;31.70;70.07;100944.72;4973371;28;70057;-40
2023/12/09 04:54:18;;;;;;;8.48;7.88;;;;;;;31.69;69.16;100937.63;4974992;28;67044;-40
2023/12/09 04:56:48;;;;;;;11.57;9.25;;;;;;;31.81;69.25;100938.53;4970116;28;70047;-40
2023/12/09 04:59:18;;;;;;;9.75;9.05;;;;;;;31.86;69.17;100927.84;4967878;28;66695;-40
2023/12/09 05:01:48;;;;;;;9.77;8.90;;;;;;;31.88;68.90;100925.75;4949768;28;70054;-40
2023/12/09 05:04:19;;;;;;;12.05;9.20;;;;;;;31.89;68.87;100919.25;4949663;28;66489;-40
2023/12/09 05:06:49;;;;;;;13.70;9.23;;;;;;;31.94;68.59;100922.16;4962579;28;69712;-39
2023/12/09 05:09:22;;;;;;;11.57;9.40;;;;;;;31.96;68.69;100916.50;4947331;28;66736;-40
2023/12/09 05:11:53;;;;;;;12.77;10.65;;;;;;;31.79;69.07;100908.13;4976098;28;69314;-39
2023/12/09 05:14:23;;;;;;;11.48;10.23;;;;;;;31.71;69.83;100913.84;4968522;28;65293;-39
2023/12/09 05:16:53;;;;;;;13.18;10.10;;;;;;;31.66;70.84;100913.69;4988150;28;69643;-40
2023/12/09 05:19:23;;;;;;;10.60;9.40;;;;;;;31.59;71.27;100894.75;4986763;28;66549;-40
2023/12/09 05:21:53;;;;;;;12.63;9.82;;;;;;;31.54;71.85;100887.31;4984923;28;70393;-41
2023/12/09 05:24:23;;;;;;;9.60;8.90;;;;;;;31.51;71.09;100866.06;4985290;28;66601;-40
2023/12/09 05:26:53;;;;;;;8.77;8.15;;;;;;;31.56;71.78;100868.91;4986759;28;68373;-40
2023/12/09 05:29:23;;;;;;;9.23;8.38;;;;;;;31.61;71.04;100866.34;4981509;28;65822;-41
2023/12/09 05:31:53;;;;;;;10.02;8.30;;;;;;;31.80;69.49;100860.94;4983065;28;70700;-39
2023/12/09 05:34:24;;;;;;;8.00;7.20;;;;;;;31.92;69.29;100856.44;4983093;28;66554;-39
2023/12/09 05:36:54;;;;;;;8.77;8.05;;;;;;;31.99;69.07;100846.34;4965522;28;69111;-40
2023/12/09 05:39:24;;;;;;;8.93;8.15;;;;;;;32.04;68.89;100838.34;4964583;28;66877;-39
2023/12/09 05:41:54;;;;;;;9.95;8.98;;;;;;;32.05;68.66;100834.56;4994121;28;69743;-40
2023/12/09 05:44:24;;;;;;;8.60;8.00;;;;;;;32.09;68.53;100824.06;4978371;28;66638;-42
2023/12/09 05:46:54;;;;;;;9.45;8.55;;;;;;;32.17;68.31;100820.22;4980773;28;70244;-40
2023/12/09 05:49:24;;;;;;;9.30;8.40;;;;;;;32.18;68.24;100816.44;4985891;28;66476;-40
2023/12/09 05:51:54;;;;;;;9.88;8.85;;;;;;;32.22;68.34;100807.59;4980851;28;70427;-40
2023/12/09 05:54:24;;;;;;;9.40;8.70;;;;;;;32.14;68.09;100794.34;4985823;28;66548;-40
2023/12/09 05:56:54;;;;;;;9.48;8.77;;;;;;;32.26;68.13;100802.53;4986717;28;69976;-40
2023/12/09 05:59:24;;;;;;;9.95;9.02;;;;;;;32.28;68.01;100795.00;4976969;28;66561;-40
2023/12/09 06:01:57;;;;;;;11.48;8.95;;;;;;;32.30;67.98;100787.44;4980565;28;70171;-40
2023/12/09 06:04:27;;;;;;;9.60;8.90;;;;;;;32.29;67.87;100774.94;4984673;28;66466;-39
2023/12/09 06:06:58;;;;;;;10.43;9.43;;;;;;;32.32;67.61;100779.06;4961247;28;69002;-40
2023/12/09 06:09:28;;;;;;;12.00;9.35;;;;;;;32.34;67.80;100774.22;4980890;28;66536;-40
2023/12/09 06:11:59;;;;;;;9.98;9.30;;;;;;;32.34;67.65;100780.47;4963300;28;69082;-40
2023/12/09 06:14:29;;;;;;;9.35;8.55;;;;;;;32.38;67.67;100778.97;4965087;28;66645;-40
2023/12/09 06:16:59;;;;;;;9.48;8.50;;;;;;;32.34;67.75;100772.34;4965034;28;69483;-40
2023/12/09 06:19:29;;;;;;;10.20;9.50;;;;;;;32.42;67.68;100782.84;4943293;28;65093;-40
2023/12/09 06:21:59;;;;;;;10.23;9.27;;;;;;;32.42;67.56;100769.28;4964512;28;70416;-42
2023/12/09 06:24:29;;;;;;;11.50;10.23;;;;;;;32.44;67.37;100780.75;4965920;28;66749;-40
2023/12/09 06:27:00;;;;;;;9.32;8.63;;;;;;;32.43;67.44;100770.97;4967997;28;70028;-40
2023/12/09 06:29:30;;;;;;;9.80;8.88;;;;;;;32.49;67.25;100785.53;4933625;28;65810;-39
2023/12/09 06:32:00;;;;;;;9.73;8.98;;;;;;;32.50;67.23;100787.16;4955834;28;70614;-41
2023/12/09 06:34:30;;;;;;;10.02;9.05;;;;;;;32.40;67.24;100759.72;4947042;28;65946;-41
2023/12/09 06:37:00;;;;;;;10.00;9.05;;;;;;;32.54;67.02;100782.09;4949131;28;70914;-40
2023/12/09 06:39:30;;;;;;;9.55;8.80;;;;;;;32.52;67.10;100773.38;4962491;28;66118;-40
2023/12/09 06:42:00;;;;;;;10.13;9.32;;;;;;;32.55;67.31;100779.16;4970302;28;70474;-41
2023/12/09 06:44:30;;;;;;;12.65;8.85;;;;;;;32.55;67.22;100762.84;4943158;28;66435;-40
2023/12/09 06:47:00;;;;;;;10.18;9.27;;;;;;;32.46;66.90;100742.56;4943807;28;70145;-40
2023/12/09 06:49:30;;;;;;;9.75;9.00;;;;;;;32.58;66.69;100750.69;4961115;28;66699;-40
2023/12/09 06:52:01;;;;;;;10.07;9.27;;;;;;;32.60;66.64;100754.00;4946641;28;70499;-41
2023/12/09 06:54:31;;;;;;;9.23;8.65;;;;;;;32.61;66.95;100755.66;4947639;28;66492;-40
2023/12/09 06:57:01;;;;;;;14.50;8.35;;;;;;;32.64;66.64;100755.19;4965608;28;70228;-39
2023/12/09 06:59:31;;;;;;;13.05;9.30;;;;;;;32.62;66.64;100741.81;4971220;28;67081;-39
2023/12/09 07:02:01;;;;;;;10.18;9.20;;;;;;;32.65;66.64;100746.81;4956636;28;70287;-40
2023/12/09 07:04:33;;;;;;;9.85;9.25;;;;;;;32.59;66.37;100741.47;4960479;28;65596;-41
2023/12/09 07:07:03;;;;;;;9.85;8.93;;;;;;;32.60;66.48;100737.72;4964563;28;69466;-41
2023/12/09 07:09:33;;;;;;;9.75;8.80;;;;;;;32.69;66.40;100752.59;4979859;28;66651;-41
2023/12/09 07:12:04;;;;;;;9.15;8.25;;;;;;;32.70;66.09;100751.53;4960434;28;70137;-40
2023/12/09 07:14:34;;;;;;;8.98;8.38;;;;;;;32.70;66.40;100754.22;4960663;28;65386;-40
2023/12/09 07:17:04;;;;;;;12.90;8.55;;;;;;;32.71;66.31;100756.72;4963048;28;70146;-39
2023/12/09 07:19:34;;;;;;;9.50;8.77;;;;;;;32.69;65.93;100739.84;4964068;28;66390;-39
2023/12/09 07:22:05;;;;;;;10.27;9.35;;;;;;;32.76;65.92;100756.00;4943033;28;70683;-40
2023/12/09 07:24:35;;;;;;;9.65;8.95;;;;;;;32.69;65.59;100725.44;4973320;28;65920;-41
2023/12/09 07:27:05;;;;;;;10.85;8.60;;;;;;;32.80;65.79;100743.63;4942763;28;69929;-40
2023/12/09 07:29:35;;;;;;;9.15;8.45;;;;;;;32.78;65.69;100748.44;4971078;28;66948;-41
2023/12/09 07:32:05;;;;;;;9.25;8.55;;;;;;;32.81;65.53;100750.69;4986806;28;69334;-40
2023/12/09 07:34:36;;;;;;;8.30;7.80;;;;;;;32.72;65.89;100736.66;4959683;28;65597;-40
2023/12/09 07:37:05;;;;;;;10.07;9.05;;;;;;;32.76;65.70;100742.41;4960122;28;69861;-40
2023/12/09 07:39:36;;;;;;;9.80;8.55;;;;;;;32.82;65.36;100736.06;4971650;28;66074;-39
2023/12/09 07:42:05;;;;;;;9.45;8.60;;;;;;;32.82;65.42;100738.78;4961435;28;70615;-39
2023/12/09 07:44:36;;;;;;;9.00;8.40;;;;;;;32.81;65.29;100745.25;4943977;28;67131;-40
2023/12/09 07:47:07;;;;;;;10.07;9.07;;;;;;;32.78;65.26;100729.44;4940031;28;69617;-40
2023/12/09 07:49:37;;;;;;;10.35;9.40;;;;;;;32.86;65.42;100731.78;4961228;28;67072;-39
2023/12/09 07:52:07;;;;;;;9.65;8.95;;;;;;;32.81;65.42;100715.38;4964262;28;70446;-40
2023/12/09 07:54:37;;;;;;;10.13;9.25;;;;;;;32.89;65.31;100731.31;4961302;28;65700;-40
2023/12/09 07:57:07;;;;;;;9.35;8.50;;;;;;;32.93;65.46;100731.66;4943336;28;70188;-39
2023/12/09 07:59:37;;;;;;;9.50;8.80;;;;;;;32.91;65.05;100712.06;4925448;28;65339;-40
2023/12/09 08:02:07;;;;;;;8.13;7.47;;;;;;;32.94;65.21;100712.41;4962754;28;70301;-40
2023/12/09 08:04:38;;;;;;;8.82;8.32;;;;;;;32.96;65.25;100716.78;4972429;28;65914;-39
2023/12/09 08:07:08;;;;;;;9.40;8.60;;;;;;;32.96;65.21;100714.06;4962729;28;70999;-40
2023/12/09 08:09:38;;;;;;;9.15;8.35;;;;;;;32.96;65.25;100708.63;4968743;28;66579;-40
2023/12/09 08:12:09;;;;;;;10.30;9.38;;;;;;;32.70;65.19;100716.22;4968089;28;70615;-39
2023/12/09 08:14:39;;;;;;;10.57;9.63;;;;;;;32.55;65.24;100710.44;4979473;28;65674;-41
2023/12/09 08:17:12;;;;;;;10.02;9.15;;;;;;;32.52;66.06;100716.34;4948232;28;70306;-42
2023/12/09 08:19:54;;;;;;;14.18;8.75;;;;;;;32.49;65.69;100715.75;4926495;28;67920;-39
2023/12/09 08:22:24;;;;;;;17.20;11.43;;;;;;;32.53;65.74;100712.56;4966993;28;69943;-40
2023/12/09 08:24:55;;;;;;;17.83;12.63;;;;;;;32.58;65.47;100718.13;4961042;28;65472;-40
2023/12/09 08:27:25;;;;;;;20.73;12.82;;;;;;;32.51;65.27;100709.25;4945446;28;71215;-40
2023/12/09 08:29:55;;;;;;;56.03;12.75;;;;;;;32.69;65.35;100698.28;4950283;28;66003;-40
2023/12/09 08:32:25;;;;;;;66.13;11.48;;;;;;;32.87;65.08;100700.00;4980866;28;70375;-41
2023/12/09 08:34:56;;;;;;;32.95;12.98;;;;;;;32.70;64.54;100699.91;4973884;28;66443;-40
2023/12/09 08:37:40;;;;;;;40.33;12.50;;;;;;;32.60;64.31;100705.13;4974708;28;69762;-41
2023/12/09 08:40:14;;;;;;;19.65;12.30;;;;;;;32.57;64.26;100702.88;4966011;28;65589;-41
2023/12/09 08:42:45;;;;;;;18.52;12.52;;;;;;;32.48;64.23;100702.38;4957159;28;70274;-42
2023/12/09 08:45:16;;;;;;;;;;;;;;;32.22;65.01;100703.66;4971394;28;65450;-42
2023/12/09 08:47:47;;;;;;;29.52;13.75;;;;;;;32.47;65.46;100707.00;4971942;28;70489;-41
2023/12/09 08:50:17;;;;;;;26.48;13.25;;;;;;;32.46;65.19;100699.94;4966678;28;65285;-42
2023/12/09 08:52:53;;;;;;;16.15;12.38;;;;;;;32.37;65.45;100706.72;4972393;28;70128;-40
2023/12/09 08:55:23;;;;;;;22.13;12.45;;;;;;;32.45;66.00;100713.69;4982314;28;66355;-43
2023/12/09 08:57:53;;;;;;;22.70;12.90;;;;;;;32.41;67.28;100705.19;4972946;28;70474;-41
2023/12/09 09:00:25;;;;;;;16.48;12.90;;;;;;;32.51;67.45;100720.09;4967086;28;66745;-39
2023/12/09 09:02:56;;;;;;;21.05;13.48;;;;;;;32.55;67.12;100718.59;4955238;28;69182;-38
2023/12/09 09:05:26;;;;;;;19.08;12.18;;;;;;;32.52;66.19;100721.78;4960478;28;65733;-38
2023/12/09 09:07:56;;;;;;;12.35;11.10;;;;;;;32.42;65.24;100719.59;4952715;28;69632;-39
2023/12/09 09:10:26;;;;;;;15.32;12.25;;;;;;;32.42;66.08;100725.84;4962542;28;66654;-38
2023/12/09 09:12:56;;;;;;;13.48;12.05;;;;;;;32.44;66.83;100729.16;4943564;28;70473;-41
2023/12/09 09:15:27;;;;;;;15.30;11.88;;;;;;;32.45;67.02;100729.97;4968417;28;66271;-40
2023/12/09 09:17:57;;;;;;;18.42;11.30;;;;;;;32.36;66.79;100715.94;4981555;28;70488;-39
2023/12/09 09:20:27;;;;;;;19.20;11.43;;;;;;;32.45;66.93;100736.22;4975436;28;66113;-39
2023/12/09 09:22:57;;;;;;;12.10;11.02;;;;;;;32.52;66.79;100740.78;4974292;28;69475;-39
2023/12/09 09:25:27;;;;;;;17.77;10.68;;;;;;;32.51;67.10;100736.41;4969174;28;65692;-39
2023/12/09 09:27:57;;;;;;;13.75;9.48;;;;;;;32.46;66.94;100743.38;4970817;28;69843;-39
2023/12/09 09:30:27;;;;;;;13.45;10.10;;;;;;;32.51;66.76;100742.66;4964061;28;66641;-37
2023/12/09 09:32:57;;;;;;;13.13;9.82;;;;;;;32.49;67.71;100747.50;4943381;28;69915;-39
2023/12/09 09:35:27;;;;;;;14.00;9.82;;;;;;;32.47;68.06;100744.19;4969322;28;65310;-39
2023/12/09 09:37:57;;;;;;;11.50;9.20;;;;;;;32.50;67.52;100751.88;4962470;28;70144;-40
2023/12/09 09:40:27;;;;;;;10.20;8.93;;;;;;;32.47;67.49;100755.88;4970294;28;65207;-41
2023/12/09 09:43:00;;;;;;;9.43;8.40;;;;;;;32.38;68.21;100740.97;4965386;28;70519;-39
2023/12/09 09:45:30;;;;;;;15.23;8.90;;;;;;;32.46;67.99;100756.94;4951189;28;66624;-38
2023/12/09 09:48:05;;;;;;;10.88;8.80;;;;;;;32.43;68.80;100767.38;4969219;28;70704;-38
2023/12/09 09:50:43;;;;;;;13.40;9.23;;;;;;;31.71;68.78;100653.50;4972249;28;65833;-39
2023/12/09 09:53:20;;;;;;;8.25;7.53;;;;;;;32.42;68.96;100769.28;4967081;28;70446;-39
2023/12/09 09:55:51;;;;;;;7.85;7.05;;;;;;;32.00;69.23;100700.66;4963006;28;66742;-39
2023/12/09 09:58:22;;;;;;;7.97;7.28;;;;;;;32.39;67.78;100748.03;4974763;28;69406;-39
2023/12/09 10:00:55;;;;;;;6.55;6.15;;;;;;;32.36;67.94;100762.09;4972157;28;65128;-39
2023/12/09 10:03:26;;;;;;;9.10;6.40;;;;;;;32.36;68.00;100770.22;4960495;28;70128;-38
2023/12/09 10:05:57;;;;;;;7.45;5.60;;;;;;;32.34;67.51;100766.09;4971673;28;66252;-38
2023/12/09 10:08:29;;;;;;;;;;;;;;;32.11;67.94;100772.28;4968613;28;69131;-39
2023/12/09 10:10:59;;;;;;;5.75;4.80;;;;;;;32.27;67.33;100771.63;4961822;28;66404;-38
2023/12/09 10:13:29;;;;;;;5.72;5.22;;;;;;;32.26;66.72;100775.38;4979083;28;69761;-40
2023/12/09 10:16:01;;;;;;;8.40;5.88;;;;;;;32.23;66.44;100759.56;4949020;28;65416;-39
2023/12/09 10:18:31;;;;;;;5.53;5.13;;;;;;;32.26;66.67;100769.97;4978400;28;69911;-39
2023/12/09 10:21:01;;;;;;;5.00;4.70;;;;;;;32.23;66.37;100771.28;4963066;28;66658;-38
2023/12/09 10:23:31;;;;;;;5.00;4.43;;;;;;;32.28;66.46;100773.28;4968939;28;70130;-38
2023/12/09 10:26:02;;;;;;;4.43;4.13;;;;;;;32.18;66.50;100762.16;4965788;28;66629;-39
2023/12/09 10:28:33;;;;;;;4.47;4.10;;;;;;;32.22;66.76;100768.78;4970785;28;69066;-39
2023/12/09 10:31:04;;;;;;;4.28;3.78;;;;;;;32.14;67.22;100774.53;4969865;28;66037;-38
2023/12/09 10:33:35;;;;;;;4.15;3.80;;;;;;;32.20;66.94;100770.88;4968179;28;70198;-38
2023/12/09 10:36:07;;;;;;;4.45;4.05;;;;;;;32.16;67.40;100767.81;4952629;28;66581;-38
2023/12/09 10:38:43;;;;;;;4.07;3.67;;;;;;;32.09;67.05;100758.94;4981013;28;70653;-39
2023/12/09 10:41:16;;;;;;;3.40;3.08;;;;;;;32.04;67.66;100748.81;4967051;28;66432;-39
2023/12/09 10:43:46;;;;;;;3.72;3.42;;;;;;;32.14;67.35;100758.25;4970658;28;70024;-39
2023/12/09 10:46:16;;;;;;;5.72;3.65;;;;;;;32.15;67.54;100765.31;4968693;28;66036;-38
2023/12/09 10:48:46;;;;;;;3.72;3.40;;;;;;;32.10;67.65;100765.22;4970539;28;70938;-39
2023/12/09 10:51:16;;;;;;;3.80;3.50;;;;;;;32.11;68.06;100775.00;4969057;28;65221;-39
2023/12/09 10:53:46;;;;;;;3.55;3.30;;;;;;;32.08;67.91;100772.75;4971933;28;70211;-39
2023/12/09 10:56:16;;;;;;;4.25;3.95;;;;;;;32.05;68.34;100780.28;4976247;28;65576;-39
2023/12/09 10:58:48;;;;;;;3.88;3.15;;;;;;;32.05;68.33;100783.00;4949851;28;70221;-40
2023/12/09 11:01:19;;;;;;;3.47;3.25;;;;;;;32.07;68.01;100780.06;4966774;28;65386;-39
2023/12/09 11:03:49;;;;;;;4.13;3.77;;;;;;;32.02;68.13;100783.47;4950338;28;69942;-38
2023/12/09 11:06:21;;;;;;;4.13;3.72;;;;;;;32.11;67.86;100791.28;4945762;28;65841;-39
2023/12/09 11:08:52;;;;;;;3.88;3.45;;;;;;;32.01;68.30;100794.53;4961689;28;69989;-38
2023/12/09 11:11:22;;;;;;;3.72;3.42;;;;;;;31.94;68.17;100775.66;4947205;28;65750;-40
2023/12/09 11:13:58;;;;;;;4.20;3.80;;;;;;;32.00;68.24;100793.72;4971567;28;43722;-39
2023/12/09 11:16:29;;;;;;;4.05;3.75;;;;;;;32.03;68.41;100793.25;4946392;28;65974;-38
2023/12/09 11:19:00;;;;;;;4.57;4.10;;;;;;;31.99;68.25;100796.69;4931921;28;70608;-38
2023/12/09 11:21:30;;;;;;;3.80;3.50;;;;;;;31.94;68.42;100786.50;4951442;28;65828;-39
2023/12/09 11:24:00;;;;;;;11.30;4.35;;;;;;;31.97;68.65;100799.59;4960964;28;69205;-39
2023/12/09 11:26:35;;;;;;;6.13;4.18;;;;;;;32.03;68.58;100798.69;4970301;28;66263;-39
2023/12/09 11:29:06;;;;;;;4.18;3.78;;;;;;;32.00;68.46;100810.00;4968874;28;69760;-39
2023/12/09 11:31:48;;;;;;;7.35;6.65;;;;;;;31.88;68.10;100821.84;4970638;28;65488;-40
2023/12/09 11:34:21;;;;;;;6.97;6.47;;;;;;;31.63;68.13;100765.00;4977695;28;68613;-40